M I D A S
Marine Information and Data Acquisition System
Tripno 2024 of the Zeeleeuw from 2010-11-10 07:51:26 to 2010-11-10 16:08:12
Back to CruiseResearch ActivitiesStationsMapUnderway DataData graphs

EquipmentUnitsComment
TimeDGPSUTC
LatitudeDGPSDM.mWGS84
LongitudeDGPSDM.mWGS84
HeadingGyrodeg 
SOGDGPSknotsSpeed over ground
COGDGPSdegCourse over ground
DepthEcho soundermeters200 kHz
Missing or incorrect values are displayed as -999
Navigation data collected by the RV Zeeleeuw from 2010-11-10 07:48:18 to 2010-11-10 16:16:22
                                                                                    Next 1000 lines
Time Latitude Longitude Heading SOG COG Depth
2010-11-10 07:48:28 51°13.662 2°55.954 107.5 1.2 292 7.3
2010-11-10 07:48:32 51°13.662 2°55.952 107.3 1.7 293 7.2
2010-11-10 07:48:37 51°13.664 2°55.947 107 2.2 292 7
2010-11-10 07:48:43 51°13.665 2°55.94 106.4 2.7 291 -999
2010-11-10 07:48:48 51°13.667 2°55.934 105.6 3.1 290 -999
2010-11-10 07:48:55 51°13.669 2°55.923 105.1 3.5 288 -999
2010-11-10 07:49:00 51°13.671 2°55.915 104.6 3.8 287 -999
2010-11-10 07:49:06 51°13.672 2°55.905 104.3 3.9 286 -999
2010-11-10 07:49:11 51°13.674 2°55.897 104.3 3.9 286 -999
2010-11-10 07:49:16 51°13.675 2°55.888 104.6 4 286 -999
2010-11-10 07:49:21 51°13.677 2°55.88 105.1 4.2 287 -999
2010-11-10 07:49:26 51°13.679 2°55.871 105.5 4.3 287 -999
2010-11-10 07:49:31 51°13.68 2°55.862 105.9 4.2 287 -999
2010-11-10 07:49:36 51°13.682 2°55.853 106 4.2 287 -999
2010-11-10 07:49:41 51°13.684 2°55.844 106.1 4.2 288 -999
2010-11-10 07:49:46 51°13.685 2°55.836 106.4 4.2 288 -999
2010-11-10 07:49:51 51°13.687 2°55.827 107.3 4.2 289 -999
2010-11-10 07:49:56 51°13.689 2°55.818 108.2 4.2 290 -999
2010-11-10 07:50:01 51°13.691 2°55.81 109 4.2 291 -999
2010-11-10 07:50:06 51°13.693 2°55.801 109.7 4.2 291 -999
2010-11-10 07:50:11 51°13.696 2°55.793 110.4 4.2 293 -999
2010-11-10 07:50:16 51°13.698 2°55.784 111.3 4.1 292 -999
2010-11-10 07:50:21 51°13.7 2°55.776 111.9 3.9 293 -999
2010-11-10 07:50:26 51°13.702 2°55.769 111.9 3.4 292 -999
2010-11-10 07:50:31 51°13.703 2°55.764 112 2.6 293 -999
2010-11-10 07:50:36 51°13.704 2°55.761 112.8 1.4 289 -999
2010-11-10 07:50:41 51°13.704 2°55.761 114.8 0.3 266 -999
2010-11-10 07:50:46 51°13.703 2°55.761 118.9 0.3 148 -999
2010-11-10 07:50:51 51°13.702 2°55.76 123.8 0.3 236 -999
2010-11-10 07:50:56 51°13.703 2°55.759 127.3 0.6 304 -999
2010-11-10 07:51:01 51°13.704 2°55.757 129.5 1.3 302 -999
2010-11-10 07:51:06 51°13.705 2°55.753 131.3 1.9 308 -999
2010-11-10 07:51:11 51°13.708 2°55.749 132.4 2.5 307 -999
2010-11-10 07:51:16 51°13.711 2°55.744 133.7 2.9 312 -999
2010-11-10 07:51:21 51°13.714 2°55.738 135.2 3.5 311 -999
2010-11-10 07:51:26 51°13.718 2°55.732 137.4 3.9 317 -999
2010-11-10 07:51:31 51°13.723 2°55.726 139.8 4.3 317 -999
2010-11-10 07:51:36 51°13.728 2°55.719 141.8 4.6 320 -999
2010-11-10 07:51:41 51°13.733 2°55.712 143.5 4.9 322 -999
2010-11-10 07:51:46 51°13.739 2°55.706 145.1 5.1 323 -999
2010-11-10 07:51:51 51°13.745 2°55.699 146.7 5.3 325 -999
2010-11-10 07:51:56 51°13.752 2°55.692 148.2 5.5 326 -999
2010-11-10 07:52:01 51°13.758 2°55.685 149.5 5.7 327 -999
2010-11-10 07:52:06 51°13.765 2°55.678 150.6 5.9 329 -999
2010-11-10 07:52:11 51°13.773 2°55.671 151.6 6.1 329 -999
2010-11-10 07:52:16 51°13.781 2°55.665 152.8 6.3 332 -999
2010-11-10 07:52:21 51°13.789 2°55.658 154.9 6.4 332 -999
2010-11-10 07:52:26 51°13.797 2°55.653 157.3 6.6 336 -999
2010-11-10 07:52:31 51°13.806 2°55.647 159.9 6.7 338 -999
2010-11-10 07:52:36 51°13.815 2°55.642 162.9 6.8 341 -999
2010-11-10 07:52:41 51°13.824 2°55.638 166.1 6.8 344 -999
2010-11-10 07:52:46 51°13.833 2°55.635 169.6 6.8 349 -999
2010-11-10 07:52:51 51°13.842 2°55.633 173.2 6.8 351 -999
2010-11-10 07:52:56 51°13.852 2°55.631 176.3 6.8 355 -999
2010-11-10 07:53:01 51°13.861 2°55.631 178.5 6.6 357 -999
2010-11-10 07:53:06 51°13.87 2°55.631 181.5 6.3 359 -999
2010-11-10 07:53:11 51°13.878 2°55.631 184 6.1 1 -999
2010-11-10 07:53:16 51°13.886 2°55.632 186.2 5.9 3 -999
2010-11-10 07:53:21 51°13.894 2°55.633 188.8 5.5 5 -999
2010-11-10 07:53:26 51°13.901 2°55.634 191.8 5.1 8 -999
2010-11-10 07:53:31 51°13.907 2°55.636 195.2 4.8 10 -999
2010-11-10 07:53:36 51°13.913 2°55.639 198.5 4.6 14 -999
2010-11-10 07:53:41 51°13.919 2°55.642 200.8 4.3 18 10.2
2010-11-10 07:53:46 51°13.923 2°55.645 203.8 4 21 10.1
2010-11-10 07:53:51 51°13.928 2°55.648 206.5 3.8 23 4.9
2010-11-10 07:53:56 51°13.932 2°55.652 210.1 3.5 27 -999
2010-11-10 07:54:01 51°13.936 2°55.655 213.7 3.3 30 -999
2010-11-10 07:54:06 51°13.939 2°55.659 216.9 2.8 34 11.1
2010-11-10 07:54:11 51°13.942 2°55.662 219.3 2.4 37 5.1
2010-11-10 07:54:16 51°13.944 2°55.665 222.5 2 39 -999
2010-11-10 07:54:21 51°13.945 2°55.667 225.8 1.4 38 -999
2010-11-10 07:54:26 51°13.946 2°55.667 229.4 0.6 36 4.8
2010-11-10 07:54:31 51°13.946 2°55.667 233.2 0.3 289 -999
2010-11-10 07:54:36 51°13.946 2°55.665 238.2 0.6 248 -999
2010-11-10 07:54:41 51°13.945 2°55.663 245.9 1 261 -999
2010-11-10 07:54:46 51°13.945 2°55.66 252 1.3 254 -999
2010-11-10 07:54:51 51°13.945 2°55.657 256.5 1.6 263 5.1
2010-11-10 07:54:56 51°13.944 2°55.653 261 1.8 262 -999
2010-11-10 07:55:00 51°13.944 2°55.649 264.3 2 269 10.6
2010-11-10 07:55:06 51°13.944 2°55.643 269.6 2.1 273 -999
2010-11-10 07:55:11 51°13.945 2°55.638 277.1 2.3 279 11.3
2010-11-10 07:55:16 51°13.946 2°55.633 283.4 2.4 284 -999
2010-11-10 07:55:21 51°13.947 2°55.628 287.8 2.6 291 -999
2010-11-10 07:55:26 51°13.949 2°55.622 294 2.7 295 -999
2010-11-10 07:55:31 51°13.951 2°55.617 299 2.8 301 -999
2010-11-10 07:55:36 51°13.954 2°55.611 305.1 3.2 305 -999
2010-11-10 07:55:41 51°13.958 2°55.605 311.1 3.6 314 -999
2010-11-10 07:55:46 51°13.962 2°55.599 317.1 4.1 317 -999
2010-11-10 07:55:51 51°13.968 2°55.593 320.9 4.6 323 10.8
2010-11-10 07:55:56 51°13.974 2°55.586 323.6 5 324 9.7
2010-11-10 07:56:00 51°13.98 2°55.58 324.6 5.5 326 9.6
2010-11-10 07:56:06 51°13.989 2°55.571 326 6.3 328 9.7
2010-11-10 07:56:10 51°13.995 2°55.564 327.1 6.8 328 9.7
2010-11-10 07:56:16 51°14.006 2°55.554 327.6 7.3 330 9.6
2010-11-10 07:56:20 51°14.013 2°55.547 328.6 7.6 329 9.5
2010-11-10 07:56:25 51°14.022 2°55.538 328.8 7.9 329 9.2
2010-11-10 07:56:30 51°14.032 2°55.529 328.6 8.2 330 9.2
2010-11-10 07:56:35 51°14.043 2°55.52 329.1 8.4 330 9.2
2010-11-10 07:56:40 51°14.053 2°55.51 329.5 8.5 328 9.1
2010-11-10 07:56:45 51°14.063 2°55.5 329.5 8.7 330 10.1
2010-11-10 07:56:51 51°14.076 2°55.488 329.5 8.9 328 -999
2010-11-10 07:56:56 51°14.087 2°55.478 328.9 9.1 329 -999
2010-11-10 07:57:01 51°14.098 2°55.467 329.5 9.3 329 -999
2010-11-10 07:57:06 51°14.109 2°55.457 329.6 9.4 329 10.7
2010-11-10 07:57:11 51°14.12 2°55.446 329.3 9.5 329 -999
2010-11-10 07:57:16 51°14.131 2°55.436 329.2 9.6 330 10.3
2010-11-10 07:57:21 51°14.143 2°55.425 329.6 9.8 329 -999
2010-11-10 07:57:26 51°14.155 2°55.413 329.7 9.9 328 -999
2010-11-10 07:57:31 51°14.166 2°55.401 328.9 9.9 327 11.6
2010-11-10 07:57:36 51°14.178 2°55.389 327.2 10.1 326 -999
2010-11-10 07:57:41 51°14.19 2°55.376 326.9 10.3 326 -999
2010-11-10 07:57:46 51°14.201 2°55.362 326.1 10.4 323 9.7
2010-11-10 07:57:51 51°14.213 2°55.348 324.7 10.4 323 -999
2010-11-10 07:57:56 51°14.224 2°55.334 323.1 10.5 322 -999
2010-11-10 07:58:01 51°14.236 2°55.321 323.3 10.6 324 -999
2010-11-10 07:58:06 51°14.248 2°55.307 323.8 10.6 324 10.3
2010-11-10 07:58:11 51°14.26 2°55.293 324.2 10.6 323 -999
2010-11-10 07:58:16 51°14.272 2°55.279 323.5 10.6 323 -999
2010-11-10 07:58:21 51°14.284 2°55.265 323.9 10.7 324 10
2010-11-10 07:58:26 51°14.296 2°55.252 324.9 10.7 325 9.4
2010-11-10 07:58:31 51°14.308 2°55.238 325.5 10.7 325 9.8
2010-11-10 07:58:36 51°14.32 2°55.224 325.8 10.7 324 9.9
2010-11-10 07:58:40 51°14.33 2°55.214 325.6 10.8 325 9.4
2010-11-10 07:58:45 51°14.342 2°55.2 325.9 10.8 325 9.3
2010-11-10 07:58:50 51°14.354 2°55.185 325.9 10.8 324 8.9
2010-11-10 07:58:55 51°14.366 2°55.171 324.9 10.8 323 9.1
2010-11-10 07:59:00 51°14.379 2°55.156 324.1 10.8 324 8.6
2010-11-10 07:59:05 51°14.391 2°55.143 325 10.9 326 9.4
2010-11-10 07:59:10 51°14.404 2°55.13 326.7 11 326 9.5
2010-11-10 07:59:15 51°14.416 2°55.116 327.1 10.9 325 9.6
2010-11-10 07:59:20 51°14.429 2°55.101 326.7 10.8 325 8.7
2010-11-10 07:59:24 51°14.438 2°55.089 325.7 11.2 323 8.6
2010-11-10 07:59:30 51°14.453 2°55.07 323.8 11.4 321 10
2010-11-10 07:59:35 51°14.464 2°55.056 322.8 11 322 11.3
2010-11-10 07:59:40 51°14.476 2°55.042 322.6 10.8 322 10.9
2010-11-10 07:59:44 51°14.487 2°55.03 322.6 11.3 325 9.9
2010-11-10 07:59:49 51°14.5 2°55.016 325.1 11.4 325 10.7
2010-11-10 07:59:54 51°14.512 2°55.001 326.1 11.3 323 10
2010-11-10 07:59:59 51°14.524 2°54.984 325.3 11.7 317 10.6
2010-11-10 08:00:04 51°14.535 2°54.964 322.5 11.8 313 10.8
2010-11-10 08:00:08 51°14.544 2°54.949 320.2 11.8 313 10.7
2010-11-10 08:00:14 51°14.558 2°54.925 319.7 12 312 11.8
2010-11-10 08:00:19 51°14.569 2°54.905 321.2 12.2 312 11.3
2010-11-10 08:00:24 51°14.58 2°54.886 321.5 12.3 313 10.7
2010-11-10 08:00:28 51°14.59 2°54.87 322.5 12.4 314 10.4
2010-11-10 08:00:33 51°14.603 2°54.852 325.2 12.2 316 11.3
2010-11-10 08:00:38 51°14.615 2°54.834 327.7 12.1 317 11.6
2010-11-10 08:00:43 51°14.628 2°54.817 327.9 12.1 320 10.9
2010-11-10 08:00:48 51°14.641 2°54.801 329.7 12 323 10.9
2010-11-10 08:00:52 51°14.651 2°54.789 331.4 11.8 322 10.8
2010-11-10 08:00:57 51°14.664 2°54.773 330.7 11.9 322 11.4
2010-11-10 08:01:03 51°14.68 2°54.751 328.9 12.3 320 11.4
2010-11-10 08:01:08 51°14.694 2°54.734 327.1 12.5 321 11.4
2010-11-10 08:01:12 51°14.704 2°54.719 326.2 12.5 319 10.4
2010-11-10 08:01:16 51°14.714 2°54.705 325.2 12.2 319 11.3
2010-11-10 08:01:23 51°14.733 2°54.681 325.2 12.3 320 11.8
2010-11-10 08:01:28 51°14.745 2°54.663 324.9 12.3 320 11.2
2010-11-10 08:01:32 51°14.756 2°54.65 326.1 12.4 321 11.3
2010-11-10 08:01:38 51°14.772 2°54.628 326.9 12.4 320 10.8
2010-11-10 08:01:43 51°14.785 2°54.61 325.2 12.5 319 10.9
2010-11-10 08:01:48 51°14.799 2°54.593 325.8 12.6 321 10.6
2010-11-10 08:01:52 51°14.809 2°54.577 325 12.7 318 9.8
2010-11-10 08:01:57 51°14.822 2°54.56 324.5 12.4 320 10.4
2010-11-10 08:02:03 51°14.837 2°54.537 324.9 12.4 318 11.1
2010-11-10 08:02:08 51°14.85 2°54.519 324.8 12.4 319 11.2
2010-11-10 08:02:12 51°14.861 2°54.505 325.2 12.4 319 11.2
2010-11-10 08:02:17 51°14.874 2°54.487 326.2 12.5 321 10.2
2010-11-10 08:02:23 51°14.89 2°54.466 326.1 12.6 321 10.3
2010-11-10 08:02:28 51°14.903 2°54.447 326 12.7 318 10.3
2010-11-10 08:02:32 51°14.914 2°54.433 324.5 12.5 320 10.4
2010-11-10 08:02:37 51°14.927 2°54.414 323.6 12.6 317 9.7
2010-11-10 08:02:43 51°14.942 2°54.392 322.3 12.6 318 7.8
2010-11-10 08:02:48 51°14.953 2°54.373 321.4 12.3 314 7.5
2010-11-10 08:02:52 51°14.963 2°54.357 320.2 12.1 313 8.1
2010-11-10 08:02:56 51°14.972 2°54.34 319.3 12.2 313 6
2010-11-10 08:03:03 51°14.988 2°54.314 320.2 12.1 314 8.3
2010-11-10 08:03:08 51°14.999 2°54.292 318.6 12.3 309 6
2010-11-10 08:03:12 51°15.007 2°54.276 316.4 12.2 312 7.8
2010-11-10 08:03:16 51°15.016 2°54.26 317.5 11.8 306 6.9
2010-11-10 08:03:23 51°15.028 2°54.23 312.7 11.7 303 -999
2010-11-10 08:03:28 51°15.038 2°54.208 311.2 12 306 7.7
2010-11-10 08:03:33 51°15.048 2°54.187 314.3 11.9 308 7.5
2010-11-10 08:03:38 51°15.057 2°54.165 312.6 11.9 304 7.9
2010-11-10 08:03:43 51°15.067 2°54.143 311.2 12.2 307 7.7
2010-11-10 08:03:48 51°15.078 2°54.121 313.1 12.3 307 7.9
2010-11-10 08:03:52 51°15.085 2°54.103 312.9 12.4 305 8.1
2010-11-10 08:03:57 51°15.096 2°54.081 312.9 12.4 308 8.5
2010-11-10 08:04:03 51°15.109 2°54.054 312.9 12.6 306 8.2
2010-11-10 08:04:08 51°15.12 2°54.033 314 12.5 308 8.5
2010-11-10 08:04:12 51°15.129 2°54.015 315 12.7 309 8.6
2010-11-10 08:04:18 51°15.142 2°53.988 315.1 12.8 309 9
2010-11-10 08:04:23 51°15.153 2°53.967 316.1 12.8 310 8.6
2010-11-10 08:04:27 51°15.162 2°53.949 315.2 12.8 309 8.9
2010-11-10 08:04:32 51°15.174 2°53.928 316.1 12.7 312 8.4
2010-11-10 08:04:37 51°15.186 2°53.907 317.6 12.7 311 8.1
2010-11-10 08:04:43 51°15.2 2°53.885 319.4 12.4 315 7.9
2010-11-10 08:04:48 51°15.211 2°53.865 319.6 12.3 313 8.3
2010-11-10 08:04:52 51°15.221 2°53.849 320.2 12.3 315 9.2
2010-11-10 08:04:57 51°15.233 2°53.829 320.7 12.5 314 9.1
2010-11-10 08:05:03 51°15.248 2°53.806 320.9 12.4 315 8.9
2010-11-10 08:05:08 51°15.26 2°53.787 321.6 12.2 317 9.5
2010-11-10 08:05:12 51°15.27 2°53.772 322.1 12.4 315 9.7
2010-11-10 08:05:16 51°15.28 2°53.757 322.3 12.4 317 9.4
2010-11-10 08:05:23 51°15.296 2°53.73 322.3 12.2 314 8.4
2010-11-10 08:05:28 51°15.309 2°53.712 322.3 11.9 316 9.5
2010-11-10 08:05:32 51°15.318 2°53.697 321.8 12.1 315 9.6
2010-11-10 08:05:36 51°15.328 2°53.682 321.6 12.2 316 9.2
2010-11-10 08:05:43 51°15.344 2°53.656 322.4 11.8 315 9
2010-11-10 08:05:48 51°15.356 2°53.637 321.7 12 314 9.5
2010-11-10 08:05:52 51°15.365 2°53.622 321.2 11.9 315 9.6
2010-11-10 08:05:57 51°15.377 2°53.603 321.3 12.2 313 10
2010-11-10 08:06:03 51°15.391 2°53.579 320.6 12.3 315 9.4
2010-11-10 08:06:08 51°15.403 2°53.56 321.2 12.3 315 9.1
2010-11-10 08:06:13 51°15.415 2°53.541 321.5 12.1 314 -999
2010-11-10 08:06:17 51°15.424 2°53.525 321.3 12.2 314 10.2
2010-11-10 08:06:22 51°15.437 2°53.507 322.2 12.3 317 9.8
2010-11-10 08:06:28 51°15.453 2°53.485 323.2 12.3 319 9.9
2010-11-10 08:06:32 51°15.463 2°53.472 327.2 12.3 323 9.8
2010-11-10 08:06:37 51°15.477 2°53.456 328.5 12.2 322 9
2010-11-10 08:06:43 51°15.493 2°53.438 330.9 12 326 9.4
2010-11-10 08:06:48 51°15.507 2°53.423 331.6 12.2 325 10
2010-11-10 08:06:52 51°15.518 2°53.411 333.2 12.1 327 10.5
2010-11-10 08:06:57 51°15.532 2°53.397 334.3 12 328 10.7
2010-11-10 08:07:03 51°15.55 2°53.38 335.5 12 330 10.7
2010-11-10 08:07:08 51°15.565 2°53.368 337.3 12 332 10.7
2010-11-10 08:07:12 51°15.576 2°53.358 338.4 11.7 333 9.4
2010-11-10 08:07:18 51°15.593 2°53.346 339.7 11.3 334 9.4
2010-11-10 08:07:23 51°15.607 2°53.334 340.5 11.4 332 10.8
2010-11-10 08:07:28 51°15.62 2°53.323 339.8 11.4 332 9.9
2010-11-10 08:07:32 51°15.631 2°53.314 340.8 10.6 332 -999
2010-11-10 08:07:38 51°15.647 2°53.3 341 10.9 333 10.8
2010-11-10 08:07:44 51°15.663 2°53.288 341.9 10.8 334 10
2010-11-10 08:07:48 51°15.674 2°53.279 341.9 10.8 332 11.3
2010-11-10 08:07:53 51°15.688 2°53.268 342.2 11.1 334 11.2
2010-11-10 08:07:58 51°15.702 2°53.256 342 11.4 333 10.8
2010-11-10 08:08:03 51°15.716 2°53.245 342.2 11.4 333 10.9
2010-11-10 08:08:08 51°15.73 2°53.234 341.2 11.6 334 11
2010-11-10 08:08:12 51°15.742 2°53.226 342.6 11.7 336 10
2010-11-10 08:08:17 51°15.757 2°53.214 341.9 12 333 10.4
2010-11-10 08:08:23 51°15.775 2°53.201 342.2 11.9 335 10.3
2010-11-10 08:08:28 51°15.789 2°53.189 342.7 11.8 333 9.8
2010-11-10 08:08:32 51°15.801 2°53.181 341.5 11.4 335 11.5
2010-11-10 08:08:37 51°15.816 2°53.17 342.4 11.4 335 11.7
2010-11-10 08:08:43 51°15.833 2°53.157 342.7 11.6 335 11.5
2010-11-10 08:08:47 51°15.845 2°53.147 342.4 11.8 334 10.8
2010-11-10 08:08:52 51°15.86 2°53.136 342.1 11.9 334 10.6
2010-11-10 08:08:58 51°15.878 2°53.122 342.1 11.8 334 11.1
2010-11-10 08:09:03 51°15.892 2°53.11 341.8 11.8 334 11.5
2010-11-10 08:09:07 51°15.904 2°53.101 341.5 12 334 11.1
2010-11-10 08:09:12 51°15.919 2°53.09 341.9 11.8 335 11.1
2010-11-10 08:09:17 51°15.934 2°53.079 342.7 11.8 335 11.7
2010-11-10 08:09:23 51°15.952 2°53.065 342.8 11.9 334 11.4
2010-11-10 08:09:28 51°15.966 2°53.054 341.9 11.8 333 10.8
2010-11-10 08:09:32 51°15.978 2°53.045 341.4 11.9 334 10.8
2010-11-10 08:09:37 51°15.993 2°53.033 341.9 12 333 10.8
2010-11-10 08:09:43 51°16.011 2°53.019 341.8 12 334 10.7
2010-11-10 08:09:48 51°16.026 2°53.007 341.2 12 334 10.6
2010-11-10 08:09:52 51°16.038 2°52.998 341.4 12.2 335 11.1
2010-11-10 08:09:56 51°16.05 2°52.988 341.7 12.3 334 11.1
2010-11-10 08:10:03 51°16.071 2°52.972 341.4 12.2 335 10.3
2010-11-10 08:10:08 51°16.085 2°52.96 341.7 11.6 333 10.5
2010-11-10 08:10:13 51°16.099 2°52.948 341.8 11.4 333 -999
2010-11-10 08:10:18 51°16.113 2°52.936 341.6 11.6 332 12.3
2010-11-10 08:10:23 51°16.127 2°52.925 341.2 11.3 333 10.5
2010-11-10 08:10:28 51°16.141 2°52.913 341.4 11.5 331 11
2010-11-10 08:10:32 51°16.153 2°52.903 340.5 11.7 332 11.1
2010-11-10 08:10:37 51°16.167 2°52.891 340.9 11.7 332 10.8
2010-11-10 08:10:43 51°16.185 2°52.878 341.1 11.8 334 11.5
2010-11-10 08:10:48 51°16.2 2°52.866 341.6 12 333 10.6
2010-11-10 08:10:52 51°16.212 2°52.858 342.9 11.7 338 11
2010-11-10 08:10:57 51°16.227 2°52.847 343.8 11.9 335 11.5
2010-11-10 08:11:03 51°16.245 2°52.834 343.4 11.9 337 10.8
2010-11-10 08:11:08 51°16.26 2°52.824 344.8 11.8 338 11.4
2010-11-10 08:11:12 51°16.272 2°52.816 345.2 11.8 337 11.2
2010-11-10 08:11:18 51°16.291 2°52.804 345.6 11.9 337 11.6
2010-11-10 08:11:23 51°16.306 2°52.794 346.1 12 337 11.6
2010-11-10 08:11:27 51°16.318 2°52.787 345.8 11.9 339 11.8
2010-11-10 08:11:32 51°16.334 2°52.777 346.1 11.8 339 11.4
2010-11-10 08:11:37 51°16.349 2°52.767 346.4 11.7 338 11.4
2010-11-10 08:11:43 51°16.366 2°52.756 346.7 11.5 338 11.7
2010-11-10 08:11:48 51°16.381 2°52.747 346.1 11.6 338 10.5
2010-11-10 08:11:52 51°16.393 2°52.739 346.6 11.6 339 10.9
2010-11-10 08:11:58 51°16.411 2°52.727 346.3 11.8 338 10.9
2010-11-10 08:12:03 51°16.426 2°52.718 346.3 11.7 339 10.7
2010-11-10 08:12:08 51°16.441 2°52.708 346.6 11.6 338 11.7
2010-11-10 08:12:12 51°16.453 2°52.7 346.2 11.7 338 11.2
2010-11-10 08:12:16 51°16.465 2°52.693 347.1 11.8 341 10.7
2010-11-10 08:12:23 51°16.487 2°52.682 348.2 11.8 341 10.1
2010-11-10 08:12:28 51°16.502 2°52.674 348.8 11.4 342 10.1
2010-11-10 08:12:32 51°16.514 2°52.668 349.9 11.3 343 11
2010-11-10 08:12:37 51°16.529 2°52.661 350.4 11.6 343 11
2010-11-10 08:12:43 51°16.548 2°52.652 350.7 11.6 343 10.5
2010-11-10 08:12:48 51°16.563 2°52.644 350.7 11.5 343 11.3
2010-11-10 08:12:52 51°16.575 2°52.638 351 11.6 343 10.6
2010-11-10 08:12:57 51°16.591 2°52.631 351 11.7 343 10.6
2010-11-10 08:13:03 51°16.61 2°52.623 351.4 11.9 345 10.3
2010-11-10 08:13:08 51°16.624 2°52.616 351.4 11.5 343 9.3
2010-11-10 08:13:12 51°16.637 2°52.611 352.3 11.4 346 9.6
2010-11-10 08:13:17 51°16.651 2°52.603 351.1 11.1 342 -999
2010-11-10 08:13:23 51°16.669 2°52.596 350.7 10.8 344 10.6
2010-11-10 08:13:28 51°16.683 2°52.589 350.8 10.8 345 11.3
2010-11-10 08:13:32 51°16.695 2°52.584 351.4 10.9 345 9.7
2010-11-10 08:13:37 51°16.71 2°52.578 350.9 11 345 9.6
2010-11-10 08:13:43 51°16.728 2°52.571 351.4 11.2 347 9.4
2010-11-10 08:13:48 51°16.744 2°52.564 351 11.5 344 9.1
2010-11-10 08:13:52 51°16.756 2°52.56 350.8 11.3 346 8.3
2010-11-10 08:13:58 51°16.774 2°52.553 350.9 11.3 346 9.1
2010-11-10 08:14:03 51°16.79 2°52.547 351.4 11.6 346 9.1
2010-11-10 08:14:08 51°16.806 2°52.54 350.1 11.9 345 8.6
2010-11-10 08:14:12 51°16.818 2°52.535 350.7 11.9 347 9.1
2010-11-10 08:14:18 51°16.838 2°52.528 350.8 11.9 346 8.8
2010-11-10 08:14:23 51°16.854 2°52.522 350.6 11.7 347 9.8
2010-11-10 08:14:28 51°16.869 2°52.515 350.4 11.8 344 9
2010-11-10 08:14:32 51°16.882 2°52.51 350.5 11.9 348 8.7
2010-11-10 08:14:36 51°16.895 2°52.505 350.6 12 347 9.2
2010-11-10 08:14:42 51°16.914 2°52.498 350.8 12 346 8.9
2010-11-10 08:14:48 51°16.934 2°52.491 350.9 12 347 8.6
2010-11-10 08:14:52 51°16.947 2°52.485 350.7 11.9 346 8.6
2010-11-10 08:14:56 51°16.959 2°52.48 350.5 12 346 9.2
2010-11-10 08:15:03 51°16.982 2°52.472 350.2 12 347 9.1
2010-11-10 08:15:08 51°16.998 2°52.465 350.7 12 346 9.2
2010-11-10 08:15:12 51°17.011 2°52.459 350.5 11.8 346 7.9
2010-11-10 08:15:18 51°17.028 2°52.452 350.9 11.1 345 7.8
2010-11-10 08:15:23 51°17.044 2°52.446 349.5 11.4 347 -999
2010-11-10 08:15:28 51°17.06 2°52.44 350.6 11.6 347 8.8
2010-11-10 08:15:32 51°17.072 2°52.435 350.7 11.5 346 9.7
2010-11-10 08:15:38 51°17.091 2°52.428 350.6 11.4 347 9.2
2010-11-10 08:15:43 51°17.106 2°52.423 350.5 11.2 347 8.6
2010-11-10 08:15:47 51°17.118 2°52.42 353.3 11.5 352 9.4
2010-11-10 08:15:52 51°17.134 2°52.415 354.2 11.5 349 9.3
2010-11-10 08:15:58 51°17.153 2°52.412 356 11.6 355 9.6
2010-11-10 08:16:03 51°17.169 2°52.409 357.2 11.4 354 9.2
2010-11-10 08:16:08 51°17.185 2°52.407 358.2 11.4 356 9.8
2010-11-10 08:16:12 51°17.197 2°52.406 359.1 11.1 355 8.5
2010-11-10 08:16:18 51°17.216 2°52.405 -999 11.1 357 9.4
2010-11-10 08:16:23 51°17.232 2°52.402 0.2 11.5 354 9.4
2010-11-10 08:16:28 51°17.247 2°52.401 -999 11.4 357 8.9
2010-11-10 08:16:32 51°17.26 2°52.4 1.2 11.5 357 9
2010-11-10 08:16:37 51°17.277 2°52.398 0.4 11.6 354 9.1
2010-11-10 08:16:43 51°17.295 2°52.397 0.1 11.6 358 9.3
2010-11-10 08:16:48 51°17.312 2°52.394 1 11.7 354 9.2
2010-11-10 08:16:52 51°17.325 2°52.393 1.3 11.7 357 10.1
2010-11-10 08:16:56 51°17.337 2°52.391 1 11.7 355 9.4
2010-11-10 08:17:03 51°17.36 2°52.389 0.6 11.7 358 9.9
2010-11-10 08:17:08 51°17.377 2°52.386 0.3 11.8 355 10.2
2010-11-10 08:17:12 51°17.389 2°52.386 1 11.7 358 9.2
2010-11-10 08:17:16 51°17.402 2°52.384 0.8 11.6 357 9.7
2010-11-10 08:17:23 51°17.425 2°52.383 1.4 11.7 358 10.2
2010-11-10 08:17:28 51°17.441 2°52.385 3.7 11.6 3 9.9
2010-11-10 08:17:32 51°17.454 2°52.386 6 11.5 3 10
2010-11-10 08:17:38 51°17.473 2°52.388 6.7 11.5 5 10.1
2010-11-10 08:17:43 51°17.489 2°52.391 8.2 11.5 5 9.9
2010-11-10 08:17:47 51°17.501 2°52.392 8.9 11.5 6 9.8
2010-11-10 08:17:52 51°17.517 2°52.396 10 11.5 7 9.8
2010-11-10 08:17:57 51°17.533 2°52.4 11.4 11.5 8 9.7
2010-11-10 08:18:03 51°17.552 2°52.403 11.4 11.4 6 9.3
2010-11-10 08:18:08 51°17.567 2°52.407 11.7 11 8 10.1
2010-11-10 08:18:12 51°17.58 2°52.41 12.2 11.2 9 9.6
2010-11-10 08:18:18 51°17.598 2°52.415 12.4 11.4 9 10.2
2010-11-10 08:18:23 51°17.614 2°52.418 12.4 11.4 7 9.5
2010-11-10 08:18:28 51°17.629 2°52.422 12.2 11.3 9 10
2010-11-10 08:18:32 51°17.641 2°52.425 11.7 11 8 9.6
2010-11-10 08:18:38 51°17.659 2°52.429 12.4 10.7 10 9.2
2010-11-10 08:18:43 51°17.673 2°52.432 12 10.4 6 9.2
2010-11-10 08:18:48 51°17.688 2°52.433 10.3 10.6 3 9
2010-11-10 08:18:52 51°17.7 2°52.436 10.7 10.6 7 9.1
2010-11-10 08:18:57 51°17.715 2°52.439 11.2 10.9 7 9.8
2010-11-10 08:19:03 51°17.733 2°52.442 10.8 10.9 6 9.3
2010-11-10 08:19:08 51°17.748 2°52.445 11.7 11.2 7 9.7
2010-11-10 08:19:12 51°17.76 2°52.447 11 10.7 6 8.7
2010-11-10 08:19:17 51°17.774 2°52.451 12.4 10.4 10 9.9
2010-11-10 08:19:23 51°17.792 2°52.454 11.6 10.7 5 10.1
2010-11-10 08:19:28 51°17.807 2°52.457 9.8 10.8 8 10.1
2010-11-10 08:19:32 51°17.818 2°52.459 11.1 10.7 5 9
2010-11-10 08:19:37 51°17.834 2°52.461 10.8 10.9 6 8.6
2010-11-10 08:19:43 51°17.851 2°52.464 11.6 10.6 6 9.2
2010-11-10 08:19:48 51°17.866 2°52.467 11.1 10.7 5 9.3
2010-11-10 08:19:53 51°17.881 2°52.47 11.9 10.9 8 9.4
2010-11-10 08:19:57 51°17.893 2°52.471 10.7 11.3 5 9.5
2010-11-10 08:20:02 51°17.909 2°52.475 11.6 11.2 9 9.5
2010-11-10 08:20:08 51°17.926 2°52.478 11.2 10.9 6 9.2
2010-11-10 08:20:12 51°17.938 2°52.48 11.3 10.7 8 10.8
2010-11-10 08:20:18 51°17.957 2°52.484 11.9 11 6 10.2
2010-11-10 08:20:23 51°17.972 2°52.486 10.9 11.3 5 10.3
2010-11-10 08:20:28 51°17.988 2°52.488 10.4 11.2 5 9.5
2010-11-10 08:20:33 51°18.003 2°52.491 10.8 11.1 6 9.5
2010-11-10 08:20:37 51°18.015 2°52.493 11.2 11.2 5 9.9
2010-11-10 08:20:43 51°18.034 2°52.496 11 11.4 7 9.2
2010-11-10 08:20:48 51°18.049 2°52.499 11.5 10.9 7 -999
2010-11-10 08:20:53 51°18.063 2°52.502 11 10.6 7 9.4
2010-11-10 08:20:58 51°18.078 2°52.504 12 10.9 5 10.1
2010-11-10 08:21:03 51°18.093 2°52.505 10.1 10.9 4 9.8
2010-11-10 08:21:08 51°18.109 2°52.509 11.3 11 9 9.4
2010-11-10 08:21:12 51°18.122 2°52.51 11.3 11.6 3 9.5
2010-11-10 08:21:17 51°18.137 2°52.513 9.9 11 7 9.5
2010-11-10 08:21:23 51°18.154 2°52.517 12.6 10.8 7 9.8
2010-11-10 08:21:28 51°18.17 2°52.519 11.6 11.1 4 10.1
2010-11-10 08:21:32 51°18.182 2°52.52 8.1 10.4 6 -999
2010-11-10 08:21:38 51°18.198 2°52.527 12.4 10.3 15 -999
2010-11-10 08:21:44 51°18.216 2°52.532 16.6 10.7 12 10.7
2010-11-10 08:21:48 51°18.227 2°52.539 17.9 10.8 19 10.4
2010-11-10 08:21:53 51°18.241 2°52.546 20.8 10.7 17 10
2010-11-10 08:21:58 51°18.255 2°52.555 21.4 10.9 20 9.3
2010-11-10 08:22:03 51°18.269 2°52.564 24.3 10.8 20 155.8
2010-11-10 08:22:08 51°18.283 2°52.574 25.2 10.9 24 9.8
2010-11-10 08:22:13 51°18.297 2°52.583 26.7 10.9 22 9.8
2010-11-10 08:22:17 51°18.308 2°52.591 27.1 10.9 23 10
2010-11-10 08:22:22 51°18.322 2°52.602 27.8 11.2 27 11
2010-11-10 08:22:28 51°18.338 2°52.616 28 10.8 29 10.5
2010-11-10 08:22:32 51°18.347 2°52.628 33.5 10.5 39 11
2010-11-10 08:22:38 51°18.359 2°52.648 38.3 10.3 46 11.6
2010-11-10 08:22:43 51°18.367 2°52.666 46 10.4 53 11.2
2010-11-10 08:22:48 51°18.375 2°52.686 53.1 10.7 55 11.1
2010-11-10 08:22:52 51°18.382 2°52.7 52.3 10.7 55 11.4
2010-11-10 08:22:58 51°18.392 2°52.724 53.4 10.5 58 10.3
2010-11-10 08:23:03 51°18.399 2°52.744 58.2 10.7 61 10.7
2010-11-10 08:23:08 51°18.408 2°52.763 56.6 10.7 55 10.2
2010-11-10 08:23:12 51°18.414 2°52.78 57.6 10.8 59 10
2010-11-10 08:23:17 51°18.422 2°52.8 57.4 11 59 10.1
2010-11-10 08:23:23 51°18.432 2°52.824 57.6 10.9 56 10
2010-11-10 08:23:28 51°18.438 2°52.846 57.7 10.7 62 10.3
2010-11-10 08:23:32 51°18.445 2°52.862 58.6 10.9 57 10.3
2010-11-10 08:23:36 51°18.452 2°52.878 56.7 10.9 60 11.1
2010-11-10 08:23:42 51°18.46 2°52.904 60.3 11 61 11.1
2010-11-10 08:23:48 51°18.471 2°52.928 58 10.7 54 10.4
2010-11-10 08:23:52 51°18.476 2°52.944 56.3 10.7 60 10.8
2010-11-10 08:23:58 51°18.486 2°52.968 57.9 11.1 60 10.3
2010-11-10 08:24:03 51°18.494 2°52.988 56.8 10.7 57 10.1
2010-11-10 08:24:08 51°18.501 2°53.009 58.8 10.7 62 9.8
2010-11-10 08:24:12 51°18.507 2°53.025 59.1 10.7 58 10.2
2010-11-10 08:24:17 51°18.514 2°53.046 57.6 10.6 61 10.2
2010-11-10 08:24:23 51°18.523 2°53.069 57.8 10.4 59 11.1
2010-11-10 08:24:27 51°18.529 2°53.085 58.3 10.4 61 10.9
2010-11-10 08:24:32 51°18.535 2°53.107 59.4 10.8 63 10.9
2010-11-10 08:24:37 51°18.544 2°53.126 57.9 10.8 56 10.9
2010-11-10 08:24:43 51°18.552 2°53.151 57.8 10.6 62 10.8
2010-11-10 08:24:48 51°18.561 2°53.17 59.2 10.5 55 10.2
2010-11-10 08:24:52 51°18.566 2°53.186 56.7 10.4 58 10.2
2010-11-10 08:24:58 51°18.576 2°53.21 57.6 10.6 57 10.7
2010-11-10 08:25:03 51°18.583 2°53.231 57.5 10.8 61 10.6
2010-11-10 08:25:08 51°18.591 2°53.251 59.2 10.7 60 10.9
2010-11-10 08:25:12 51°18.598 2°53.267 57.5 10.5 57 10.7
2010-11-10 08:25:17 51°18.604 2°53.288 59.4 10.5 62 10.8
2010-11-10 08:25:23 51°18.613 2°53.312 58.6 10.6 59 9.8
2010-11-10 08:25:28 51°18.619 2°53.333 58.9 10.8 64 10.6
2010-11-10 08:25:32 51°18.626 2°53.349 58.6 10.4 59 11.2
2010-11-10 08:25:37 51°18.633 2°53.369 58 10.4 60 11.1
2010-11-10 08:25:43 51°18.642 2°53.393 58.4 10.4 59 10.5
2010-11-10 08:25:48 51°18.649 2°53.413 58.2 10.5 60 10.5
2010-11-10 08:25:52 51°18.654 2°53.429 59.5 10.4 63 10.6
2010-11-10 08:25:56 51°18.66 2°53.446 59.5 10.6 59 10.1
2010-11-10 08:26:03 51°18.669 2°53.474 59.8 10.5 62 10.6
2010-11-10 08:26:08 51°18.677 2°53.494 60.1 10.3 60 10.8
2010-11-10 08:26:12 51°18.681 2°53.512 60.2 10.6 66 11
2010-11-10 08:26:18 51°18.691 2°53.535 59.9 10.5 58 10.7
2010-11-10 08:26:23 51°18.697 2°53.557 59.6 10.7 65 10.9
2010-11-10 08:26:27 51°18.702 2°53.574 60.3 10.5 63 10.8
2010-11-10 08:26:32 51°18.709 2°53.594 58.4 10.4 62 11
2010-11-10 08:26:37 51°18.716 2°53.614 61.2 10.4 64 10.9
2010-11-10 08:26:43 51°18.724 2°53.639 61.1 10.5 61 10.5
2010-11-10 08:26:47 51°18.729 2°53.657 61.3 10.7 64 10.6
2010-11-10 08:26:52 51°18.736 2°53.677 61.2 10.7 60 10.3
2010-11-10 08:26:57 51°18.741 2°53.699 61.9 10.8 67 10.9
2010-11-10 08:27:03 51°18.751 2°53.723 59.5 10.6 59 11
2010-11-10 08:27:08 51°18.757 2°53.744 60.5 10.6 65 10.5
2010-11-10 08:27:12 51°18.763 2°53.76 60.9 10.5 58 9.8
2010-11-10 08:27:18 51°18.77 2°53.785 58.9 10.6 65 10.4
2010-11-10 08:27:23 51°18.777 2°53.806 62.2 10.6 63 10.9
2010-11-10 08:27:28 51°18.785 2°53.825 59 10.4 60 10.3
2010-11-10 08:27:32 51°18.79 2°53.841 58.4 10.3 62 10.5
2010-11-10 08:27:37 51°18.797 2°53.862 60.3 10.5 62 10.4
2010-11-10 08:27:43 51°18.805 2°53.887 59.4 10.6 62 11
2010-11-10 08:27:48 51°18.812 2°53.908 60.7 10.6 63 11.1
2010-11-10 08:27:52 51°18.818 2°53.924 60.5 10.4 62 11.2
2010-11-10 08:27:57 51°18.825 2°53.944 60.2 10.2 59 10.4
2010-11-10 08:28:03 51°18.833 2°53.969 61.5 10.6 62 10.1
2010-11-10 08:28:08 51°18.84 2°53.991 60.2 10.8 63 11.2
2010-11-10 08:28:12 51°18.844 2°54.008 60.2 10.8 66 10.8
2010-11-10 08:28:16 51°18.85 2°54.024 60.6 10.5 61 11.2
2010-11-10 08:28:23 51°18.859 2°54.053 59.3 10.3 64 11.6
2010-11-10 08:28:28 51°18.866 2°54.072 60.6 10.2 62 11.5
2010-11-10 08:28:32 51°18.871 2°54.089 59.5 10.5 65 11.3
2010-11-10 08:28:38 51°18.879 2°54.114 61.7 10.6 65 11.1
2010-11-10 08:28:43 51°18.887 2°54.134 59.5 10.4 58 10.1
2010-11-10 08:28:48 51°18.893 2°54.155 61.8 10.5 66 10.3
2010-11-10 08:28:52 51°18.899 2°54.171 60.3 10.2 59 10.4
2010-11-10 08:28:57 51°18.905 2°54.191 60.6 10.4 65 10.9
2010-11-10 08:29:03 51°18.912 2°54.216 60.8 10.5 65 10.9
2010-11-10 08:29:08 51°18.92 2°54.236 60.8 10.4 61 11.2
2010-11-10 08:29:13 51°18.926 2°54.257 60.5 10.2 63 11.2
2010-11-10 08:29:17 51°18.932 2°54.272 60.3 10.1 59 11.1
2010-11-10 08:29:23 51°18.94 2°54.297 58.3 10.3 62 11
2010-11-10 08:29:28 51°18.948 2°54.316 61 10.2 59 10.5
2010-11-10 08:29:32 51°18.953 2°54.333 58.8 10.5 62 10.8
2010-11-10 08:29:38 51°18.962 2°54.356 58.9 10.4 60 10.6
2010-11-10 08:29:43 51°18.968 2°54.377 59.6 10.5 63 11
2010-11-10 08:29:48 51°18.975 2°54.397 59.8 10.5 61 10.5
2010-11-10 08:29:52 51°18.98 2°54.414 59.9 10.6 64 10.9
2010-11-10 08:29:57 51°18.988 2°54.434 60.6 10.6 60 10.8
2010-11-10 08:30:03 51°18.996 2°54.459 60.3 10.5 63 10.4
2010-11-10 08:30:08 51°19.003 2°54.479 60.3 10.5 62 10.6
2010-11-10 08:30:12 51°19.008 2°54.497 61.1 10.5 65 11.3
2010-11-10 08:30:17 51°19.015 2°54.517 59.8 10.4 63 11.4
2010-11-10 08:30:23 51°19.022 2°54.542 63.7 10.2 63 11.1
2010-11-10 08:30:28 51°19.027 2°54.564 61.3 10.3 66 11.5
2010-11-10 08:30:32 51°19.034 2°54.578 60.8 10.4 58 10.7
2010-11-10 08:30:36 51°19.039 2°54.596 60 10.7 65 10.2
2010-11-10 08:30:43 51°19.049 2°54.624 60.2 10.4 60 10.5
2010-11-10 08:30:48 51°19.055 2°54.645 60.4 10.5 63 10.9
2010-11-10 08:30:52 51°19.061 2°54.66 60.1 10.3 59 10.4
2010-11-10 08:30:57 51°19.067 2°54.682 60.6 10.6 65 10.7
2010-11-10 08:31:03 51°19.076 2°54.707 60.9 10.6 61 11.1
2010-11-10 08:31:07 51°19.081 2°54.724 61.1 10.7 65 10.8
2010-11-10 08:31:12 51°19.088 2°54.744 61.2 10.6 63 11.4
2010-11-10 08:31:17 51°19.095 2°54.765 60.6 10.5 60 10.6
2010-11-10 08:31:23 51°19.101 2°54.791 61.1 10.5 68 10.8
2010-11-10 08:31:28 51°19.109 2°54.811 61.2 10.5 60 10.9
2010-11-10 08:31:32 51°19.115 2°54.828 60 10.7 62 10.3
2010-11-10 08:31:38 51°19.123 2°54.853 60.7 10.6 64 11
2010-11-10 08:31:43 51°19.13 2°54.873 59.5 10.4 61 10.9
2010-11-10 08:31:48 51°19.137 2°54.894 59.9 10.5 60 10.3
2010-11-10 08:31:52 51°19.143 2°54.911 60 10.8 62 10.7
2010-11-10 08:31:58 51°19.151 2°54.936 61.5 10.8 63 10.5
2010-11-10 08:32:03 51°19.158 2°54.956 58.9 10.6 60 10.8
2010-11-10 08:32:08 51°19.165 2°54.977 59.5 10.5 61 10.8
2010-11-10 08:32:12 51°19.171 2°54.993 59.7 10.3 60 10.8
2010-11-10 08:32:17 51°19.178 2°55.014 59.9 10.6 63 11.2
2010-11-10 08:32:23 51°19.186 2°55.038 60.5 10.7 61 10.5
2010-11-10 08:32:28 51°19.194 2°55.059 59.1 10.6 58 9.8
2010-11-10 08:32:32 51°19.198 2°55.077 60.8 10.7 65 10.8
2010-11-10 08:32:37 51°19.207 2°55.096 58.8 10.5 56 10.5
2010-11-10 08:32:43 51°19.213 2°55.121 60.7 10.3 64 10.3
2010-11-10 08:32:48 51°19.221 2°55.141 60.6 10.4 61 11
2010-11-10 08:32:52 51°19.226 2°55.157 58.9 10.4 61 10.8
2010-11-10 08:32:58 51°19.235 2°55.181 60.6 10.5 58 9.5
2010-11-10 08:33:03 51°19.242 2°55.201 58.8 10.3 62 9.7
2010-11-10 08:33:08 51°19.248 2°55.222 60.6 10.2 62 10.9
2010-11-10 08:33:12 51°19.253 2°55.239 60.4 10.4 64 11
2010-11-10 08:33:17 51°19.26 2°55.258 59.8 10.3 64 11.4
2010-11-10 08:33:23 51°19.268 2°55.282 61.1 10.3 63 11.1
2010-11-10 08:33:27 51°19.274 2°55.298 58.4 10.2 60 10.5
2010-11-10 08:33:32 51°19.28 2°55.319 60.6 10.4 63 10.8
2010-11-10 08:33:37 51°19.287 2°55.338 60.3 10.5 60 11.1
2010-11-10 08:33:42 51°19.293 2°55.359 60.4 10.8 69 11.5
2010-11-10 08:33:47 51°19.301 2°55.379 60.1 10.4 57 11
2010-11-10 08:33:52 51°19.308 2°55.4 58.8 10.4 62 11
2010-11-10 08:33:57 51°19.314 2°55.421 60.6 10.6 61 10.8
2010-11-10 08:34:02 51°19.322 2°55.441 59 10.5 62 10.4
2010-11-10 08:34:07 51°19.328 2°55.462 61.8 10.5 63 9.6
2010-11-10 08:34:12 51°19.336 2°55.482 59.1 10.4 53 9.9
2010-11-10 08:34:16 51°19.341 2°55.498 58.8 10.6 67 10.8
2010-11-10 08:34:22 51°19.35 2°55.521 60.4 10.4 56 10.2
2010-11-10 08:34:28 51°19.358 2°55.547 58.2 10.7 64 11.6
2010-11-10 08:34:32 51°19.365 2°55.562 57.8 10.5 57 10.9
2010-11-10 08:34:37 51°19.371 2°55.583 59.6 10.6 62 10.9
2010-11-10 08:34:42 51°19.379 2°55.603 60 10.3 60 10.4
2010-11-10 08:34:48 51°19.386 2°55.628 60.8 10.6 65 10.5
2010-11-10 08:34:52 51°19.392 2°55.645 60.8 10.8 59 10.8
2010-11-10 08:34:57 51°19.399 2°55.667 60.2 10.8 66 11
2010-11-10 08:35:02 51°19.405 2°55.688 61.5 10.6 64 10.9
2010-11-10 08:35:08 51°19.412 2°55.713 64.9 10.5 68 10.6
2010-11-10 08:35:12 51°19.417 2°55.73 63.3 10.4 65 10.4
2010-11-10 08:35:16 51°19.421 2°55.748 63.6 10.5 66 10.1
2010-11-10 08:35:22 51°19.428 2°55.773 64.9 10.5 67 10.6
2010-11-10 08:35:28 51°19.435 2°55.8 66.1 10.8 70 10.4
2010-11-10 08:35:32 51°19.438 2°55.819 66.9 10.7 68 10.3
2010-11-10 08:35:36 51°19.444 2°55.835 66.1 10.4 71 10.5
2010-11-10 08:35:42 51°19.449 2°55.863 68.1 10.7 71 10.4
2010-11-10 08:35:47 51°19.455 2°55.884 66.9 10.7 65 10.9
2010-11-10 08:35:52 51°19.46 2°55.906 66.1 10.8 75 11
2010-11-10 08:35:57 51°19.465 2°55.928 67.6 10.7 67 10.8
2010-11-10 08:36:02 51°19.47 2°55.951 66.5 10.7 71 10.2
2010-11-10 08:36:08 51°19.477 2°55.977 66.6 10.5 67 10.2
2010-11-10 08:36:12 51°19.479 2°55.996 68 10.8 74 10.7
2010-11-10 08:36:17 51°19.485 2°56.018 67.7 10.6 68 10.1
2010-11-10 08:36:22 51°19.489 2°56.04 68 10.7 73 10
2010-11-10 08:36:28 51°19.496 2°56.067 68.5 10.7 67 10.2
2010-11-10 08:36:32 51°19.499 2°56.085 67.6 10.7 74 10.6
2010-11-10 08:36:37 51°19.504 2°56.107 68.8 10.7 67 9.9
2010-11-10 08:36:43 51°19.509 2°56.136 68.5 11 73 10.6
2010-11-10 08:36:47 51°19.515 2°56.153 67 10.7 68 10.3
2010-11-10 08:36:52 51°19.518 2°56.176 68.5 10.9 75 10.9
2010-11-10 08:36:56 51°19.523 2°56.193 67.6 10.7 67 10.3
2010-11-10 08:37:02 51°19.53 2°56.22 65 10.7 65 10.2
2010-11-10 08:37:08 51°19.537 2°56.246 64.9 10.8 69 10
2010-11-10 08:37:12 51°19.541 2°56.264 67.3 10.8 68 10.2
2010-11-10 08:37:16 51°19.546 2°56.282 65.7 10.7 66 9.8
2010-11-10 08:37:22 51°19.551 2°56.309 66.9 10.7 71 10.7
2010-11-10 08:37:28 51°19.558 2°56.335 66.9 10.7 72 10.7
2010-11-10 08:37:32 51°19.562 2°56.352 67.4 10.5 67 10.2
2010-11-10 08:37:37 51°19.567 2°56.375 66.9 10.8 71 10.4
2010-11-10 08:37:42 51°19.573 2°56.397 66.5 10.5 66 9.6
2010-11-10 08:37:48 51°19.578 2°56.424 67.2 10.6 73 10.7
2010-11-10 08:37:52 51°19.583 2°56.44 66.6 10.4 68 10.3
2010-11-10 08:37:57 51°19.587 2°56.463 68.7 10.8 74 10.7
2010-11-10 08:38:02 51°19.594 2°56.484 65.5 10.5 65 10.3
2010-11-10 08:38:08 51°19.599 2°56.511 65.3 10.5 71 10.4
2010-11-10 08:38:12 51°19.604 2°56.528 67 10.7 71 10.9
2010-11-10 08:38:17 51°19.61 2°56.549 65.6 10.5 66 10.1
2010-11-10 08:38:23 51°19.615 2°56.576 66 10.5 74 10.5
2010-11-10 08:38:27 51°19.62 2°56.593 68 10.2 64 9.9
2010-11-10 08:38:32 51°19.625 2°56.615 65.7 10.5 71 10.8
2010-11-10 08:38:36 51°19.63 2°56.632 66.1 10.3 64 10
2010-11-10 08:38:42 51°19.636 2°56.657 65.4 10.5 72 10.1
2010-11-10 08:38:48 51°19.643 2°56.684 67.5 10.6 66 10.7
2010-11-10 08:38:52 51°19.648 2°56.7 64.2 10.4 67 10.6
2010-11-10 08:38:56 51°19.652 2°56.718 65.9 10.6 72 10.8
2010-11-10 08:39:02 51°19.658 2°56.744 66.6 10.8 68 11.1
2010-11-10 08:39:08 51°19.664 2°56.771 65.6 10.8 69 10.6
2010-11-10 08:39:12 51°19.668 2°56.788 66.1 10.8 67 10.9
2010-11-10 08:39:17 51°19.674 2°56.81 65.8 10.9 69 10.9
2010-11-10 08:39:22 51°19.679 2°56.832 65.8 10.7 73 11.4
2010-11-10 08:39:28 51°19.685 2°56.859 67.1 10.8 71 10.5
2010-11-10 08:39:32 51°19.689 2°56.877 66.6 10.7 69 11.1
2010-11-10 08:39:37 51°19.695 2°56.899 64.6 10.8 77 10.9
2010-11-10 08:39:42 51°19.699 2°56.921 69.2 10.6 69 11.1
2010-11-10 08:39:48 51°19.706 2°56.947 66.5 10.5 69 10.3
2010-11-10 08:39:52 51°19.71 2°56.964 66.2 10.6 71 10.9
2010-11-10 08:39:56 51°19.714 2°56.982 66.9 10.7 69 10.2
2010-11-10 08:40:02 51°19.72 2°57.009 67.4 10.6 71 11.1
2010-11-10 08:40:08 51°19.727 2°57.035 66.5 10.3 71 9.4
2010-11-10 08:40:12 51°19.731 2°57.053 67.9 10.5 66 9.5
2010-11-10 08:40:16 51°19.735 2°57.071 66.7 10.8 72 10.4
2010-11-10 08:40:22 51°19.742 2°57.097 66.8 10.6 67 10.8
2010-11-10 08:40:27 51°19.747 2°57.118 65.2 10.7 73 10.5
2010-11-10 08:40:32 51°19.752 2°57.14 67.6 10.6 68 10.7
2010-11-10 08:40:37 51°19.758 2°57.162 64.7 10.7 69 10.6
2010-11-10 08:40:42 51°19.762 2°57.184 67.6 10.5 71 10.5
2010-11-10 08:40:48 51°19.768 2°57.211 67.5 10.9 73 10.5
2010-11-10 08:40:52 51°19.773 2°57.229 68.1 10.9 67 10
2010-11-10 08:40:57 51°19.779 2°57.25 64.4 10.6 71 9.8
2010-11-10 08:41:03 51°19.785 2°57.276 67.1 10.6 65 10.1
2010-11-10 08:41:07 51°19.79 2°57.293 63.1 10.4 65 10.3
2010-11-10 08:41:12 51°19.796 2°57.313 62.2 10.1 64 10.2
2010-11-10 08:41:16 51°19.8 2°57.331 65.8 10.5 67 10.5
2010-11-10 08:41:22 51°19.809 2°57.355 61.3 10.5 60 10
2010-11-10 08:41:28 51°19.815 2°57.381 61.8 10.5 65 9.7
2010-11-10 08:41:32 51°19.82 2°57.399 62.5 10.7 71 11.2
2010-11-10 08:41:36 51°19.825 2°57.415 64 10.4 66 10.4
2010-11-10 08:41:42 51°19.83 2°57.441 65.4 10.6 72 10.9
2010-11-10 08:41:48 51°19.837 2°57.467 65.2 10.8 67 10.9
2010-11-10 08:41:52 51°19.841 2°57.485 65.5 10.8 71 10.5
2010-11-10 08:41:56 51°19.846 2°57.502 65.5 10.5 64 9.6
2010-11-10 08:42:02 51°19.852 2°57.529 65.9 10.6 72 10.7
2010-11-10 08:42:08 51°19.859 2°57.554 64.7 10.3 68 9.9
2010-11-10 08:42:12 51°19.861 2°57.572 68.8 10.4 69 10.2
2010-11-10 08:42:17 51°19.868 2°57.592 64.5 10.7 67 10.6
2010-11-10 08:42:22 51°19.875 2°57.614 62.7 10.6 62 10.4
2010-11-10 08:42:27 51°19.88 2°57.636 63.8 10.6 71 10.2
2010-11-10 08:42:32 51°19.885 2°57.657 64.7 10.3 67 10.1
2010-11-10 08:42:37 51°19.891 2°57.678 65.6 10.4 70 9.5
2010-11-10 08:42:43 51°19.896 2°57.705 66.9 10.5 70 9.5
2010-11-10 08:42:47 51°19.9 2°57.722 67.7 10.5 69 9.7
2010-11-10 08:42:52 51°19.904 2°57.745 68.1 10.7 73 9.5
2010-11-10 08:42:56 51°19.908 2°57.762 67.3 10.4 65 9.9
2010-11-10 08:43:02 51°19.915 2°57.787 64 10.4 71 10.5
2010-11-10 08:43:08 51°19.922 2°57.813 66.2 10.5 67 9.9
2010-11-10 08:43:12 51°19.925 2°57.831 66.4 10.6 72 10.1
2010-11-10 08:43:16 51°19.931 2°57.848 65.7 10.6 70 10
2010-11-10 08:43:22 51°19.935 2°57.876 69.2 10.4 70 9.5
2010-11-10 08:43:28 51°19.943 2°57.9 65.7 10.4 65 9.5
2010-11-10 08:43:32 51°19.946 2°57.918 65.1 10.3 69 10.1
2010-11-10 08:43:37 51°19.952 2°57.938 65 10.4 69 10.3
2010-11-10 08:43:42 51°19.956 2°57.962 68.4 10.7 72 10.9
2010-11-10 08:43:48 51°19.964 2°57.986 65.4 10.3 63 9.5
2010-11-10 08:43:52 51°19.968 2°58.004 64.2 10.4 70 9.5
2010-11-10 08:43:57 51°19.973 2°58.025 66.1 10.5 65 9.8
2010-11-10 08:44:02 51°19.977 2°58.047 67.1 10.7 75 10.7
2010-11-10 08:44:08 51°19.985 2°58.072 67.4 10.4 63 10.4
2010-11-10 08:44:12 51°19.989 2°58.089 63.2 10.4 66 9.8
2010-11-10 08:44:17 51°19.995 2°58.111 64.9 10.5 66 10.1
2010-11-10 08:44:22 51°20 2°58.132 64.8 10.5 69 9.7
2010-11-10 08:44:28 51°20.006 2°58.158 66.5 10.5 70 9.9
2010-11-10 08:44:32 51°20.01 2°58.176 67.8 10.7 69 9.8
2010-11-10 08:44:36 51°20.014 2°58.194 67.3 10.6 69 9.4
2010-11-10 08:44:42 51°20.019 2°58.221 67.7 10.6 72 9.7
2010-11-10 08:44:48 51°20.025 2°58.248 68.4 10.8 73 10.5
2010-11-10 08:44:52 51°20.031 2°58.265 66.9 10.4 68 9.7
2010-11-10 08:44:56 51°20.033 2°58.284 68.5 10.5 74 9.8
2010-11-10 08:45:02 51°20.04 2°58.31 68.3 10.9 69 10.4
2010-11-10 08:45:07 51°20.045 2°58.333 68.3 10.8 74 10.5
2010-11-10 08:45:12 51°20.051 2°58.354 67.1 10.6 67 9.7
2010-11-10 08:45:17 51°20.054 2°58.377 68.4 10.7 73 10.4
2010-11-10 08:45:22 51°20.061 2°58.398 66.9 10.5 67 9.6
2010-11-10 08:45:28 51°20.065 2°58.425 68.6 10.6 73 9.7
2010-11-10 08:45:32 51°20.07 2°58.443 67.7 10.9 66 9.6
2010-11-10 08:45:37 51°20.075 2°58.466 66.6 10.6 69 9.3
2010-11-10 08:45:43 51°20.08 2°58.492 67.2 10.2 73 9.3
2010-11-10 08:45:47 51°20.085 2°58.509 68.2 10.3 63 9.5
2010-11-10 08:45:52 51°20.091 2°58.53 63.5 10.5 67 9.8
2010-11-10 08:45:56 51°20.095 2°58.548 65 10.5 67 9.5
2010-11-10 08:46:02 51°20.102 2°58.573 65.4 10.5 68 9.3
2010-11-10 08:46:08 51°20.107 2°58.6 67.3 10.7 70 10
2010-11-10 08:46:12 51°20.113 2°58.617 65.9 10.5 67 9.6
2010-11-10 08:46:16 51°20.115 2°58.636 66.4 10.5 67 9.8
2010-11-10 08:46:22 51°20.123 2°58.66 64.3 10.5 71 10.1
2010-11-10 08:46:28 51°20.128 2°58.688 68.4 10.8 72 9.7
2010-11-10 08:46:32 51°20.133 2°58.705 67.2 10.6 66 9.9
2010-11-10 08:46:37 51°20.138 2°58.727 66.2 10.4 71 9.5
2010-11-10 08:46:42 51°20.143 2°58.749 67.6 10.7 72 10.4
2010-11-10 08:46:48 51°20.15 2°58.775 66.4 10.6 65 9.7
2010-11-10 08:46:52 51°20.153 2°58.793 67 10.6 73 9.6
2010-11-10 08:46:57 51°20.159 2°58.814 66.9 10.6 66 9.8
2010-11-10 08:47:02 51°20.163 2°58.837 66.6 10.8 72 10.1
2010-11-10 08:47:08 51°20.171 2°58.863 67.4 10.7 66 9.6
2010-11-10 08:47:12 51°20.173 2°58.882 66.9 10.6 70 9.9
2010-11-10 08:47:17 51°20.18 2°58.902 65.8 10.6 70 9.8
2010-11-10 08:47:23 51°20.185 2°58.93 68.3 10.8 69 10
2010-11-10 08:47:27 51°20.191 2°58.947 65.9 10.5 69 9.3
2010-11-10 08:47:32 51°20.195 2°58.969 66.9 10.5 71 9.4
2010-11-10 08:47:36 51°20.198 2°58.987 69 10.9 72 10.6
2010-11-10 08:47:42 51°20.205 2°59.013 65.8 10.7 69 10.4
2010-11-10 08:47:48 51°20.213 2°59.039 64.9 10.5 67 9.5
2010-11-10 08:47:52 51°20.215 2°59.058 68.3 10.7 71 10.4
2010-11-10 08:47:57 51°20.222 2°59.079 65.2 10.8 68 10.5
2010-11-10 08:48:02 51°20.228 2°59.1 64.8 10.6 65 10.2
2010-11-10 08:48:08 51°20.234 2°59.127 65.5 10.6 71 9.4
2010-11-10 08:48:12 51°20.238 2°59.144 67.5 10.8 67 10.2
2010-11-10 08:48:17 51°20.247 2°59.164 62.9 10.3 64 9.3
2010-11-10 08:48:22 51°20.25 2°59.187 65.8 10.5 71 9.6
2010-11-10 08:48:28 51°20.259 2°59.212 65.5 10.7 61 9.7
2010-11-10 08:48:32 51°20.263 2°59.23 63.7 10.7 69 10.3
2010-11-10 08:48:37 51°20.269 2°59.251 65.3 10.5 66 9.5
2010-11-10 08:48:42 51°20.275 2°59.273 64.8 10.5 68 10
2010-11-10 08:48:47 51°20.28 2°59.295 66.6 10.6 70 9.4
2010-11-10 08:48:52 51°20.286 2°59.317 67 10.8 66 10
2010-11-10 08:48:56 51°20.29 2°59.334 65.4 10.5 69 9.8
2010-11-10 08:49:02 51°20.296 2°59.36 67 10.5 70 9.7
2010-11-10 08:49:08 51°20.303 2°59.386 67.1 10.7 67 9.5
2010-11-10 08:49:12 51°20.307 2°59.404 66.3 10.6 70 9.9
2010-11-10 08:49:16 51°20.312 2°59.422 67.4 10.5 70 9.4
2010-11-10 08:49:22 51°20.317 2°59.449 69 10.6 68 9.4
2010-11-10 08:49:27 51°20.324 2°59.47 66.1 10.5 68 9.9
2010-11-10 08:49:32 51°20.328 2°59.492 66.4 10.3 72 9.6
2010-11-10 08:49:37 51°20.333 2°59.514 69 10.7 66 9.6
2010-11-10 08:49:42 51°20.339 2°59.535 65.7 10.8 68 10.2
2010-11-10 08:49:48 51°20.346 2°59.561 64.7 10.4 69 9.7
2010-11-10 08:49:52 51°20.348 2°59.58 69 10.7 75 10
2010-11-10 08:49:57 51°20.355 2°59.6 66.5 10.4 64 9.1
2010-11-10 08:50:03 51°20.361 2°59.626 65.6 10.5 71 10.2
2010-11-10 08:50:07 51°20.366 2°59.643 66.9 10.4 67 9.7
2010-11-10 08:50:12 51°20.37 2°59.665 66.9 10.6 71 9.5
2010-11-10 08:50:17 51°20.376 2°59.687 67.6 10.6 65 9.6
2010-11-10 08:50:22 51°20.381 2°59.709 67 10.5 74 9.2
2010-11-10 08:50:28 51°20.388 2°59.734 68 10.4 64 9
2010-11-10 08:50:32 51°20.391 2°59.753 66.2 10.9 73 10.3
2010-11-10 08:50:36 51°20.397 2°59.769 65.4 10.6 65 9.8
2010-11-10 08:50:42 51°20.402 2°59.796 66.4 10.5 67 9.7
2010-11-10 08:50:48 51°20.409 2°59.822 65.5 10.7 73 9.9
2010-11-10 08:50:52 51°20.414 2°59.839 67.2 10.7 66 9.2
2010-11-10 08:50:56 51°20.419 2°59.857 65.1 10.6 68 8.9
2010-11-10 08:51:02 51°20.424 2°59.884 68 10.6 71 9.3
2010-11-10 08:51:08 51°20.432 2°59.908 65.4 10.3 63 9
2010-11-10 08:51:12 51°20.436 2°59.925 63.2 10.6 69 10.2
2010-11-10 08:51:17 51°20.443 2°59.947 64.5 10.3 65 9.6
2010-11-10 08:51:22 51°20.45 2°59.967 63.1 10 65 8.7
2010-11-10 08:51:27 51°20.454 2°59.988 65.8 10.4 66 9.2
2010-11-10 08:51:32 51°20.461 3°0.009 63.4 10.5 63 10
2010-11-10 08:51:37 51°20.467 3°0.03 62.5 10.3 67 9.3
2010-11-10 08:51:43 51°20.473 3°0.056 64.7 10.5 69 10
2010-11-10 08:51:47 51°20.479 3°0.072 65.2 10.3 65 9.1
2010-11-10 08:51:52 51°20.483 3°0.095 68.3 10.7 73 9.3
2010-11-10 08:51:56 51°20.489 3°0.111 65.7 10.3 59 8.8
2010-11-10 08:52:02 51°20.495 3°0.137 63.9 10.3 68 9.2
2010-11-10 08:52:08 51°20.502 3°0.162 65 10.4 68 9
2010-11-10 08:52:12 51°20.506 3°0.179 66.1 10.4 68 9.4
2010-11-10 08:52:16 51°20.51 3°0.197 67.6 10.7 73 10
2010-11-10 08:52:22 51°20.518 3°0.222 66.1 10.5 64 9.6
2010-11-10 08:52:28 51°20.523 3°0.249 66.2 10.5 70 9.5
2010-11-10 08:52:32 51°20.528 3°0.266 67.1 10.5 69 9.6
2010-11-10 08:52:37 51°20.533 3°0.289 68.3 10.7 69 9.3
2010-11-10 08:52:42 51°20.538 3°0.31 66.9 10.5 69 9.6
2010-11-10 08:52:48 51°20.544 3°0.338 67.8 10.8 74 9.6
2010-11-10 08:52:52 51°20.549 3°0.354 68.3 10.6 66 9.4
2010-11-10 08:52:57 51°20.554 3°0.377 65.9 10.7 75 9.7
2010-11-10 08:53:02 51°20.56 3°0.398 68.2 10.5 64 9.5
2010-11-10 08:53:07 51°20.565 3°0.42 65.3 10.5 71 9.4
2010-11-10 08:53:12 51°20.571 3°0.441 66.9 10.6 64 9.6
2010-11-10 08:53:16 51°20.575 3°0.459 67.1 10.9 73 10.1
2010-11-10 08:53:22 51°20.583 3°0.485 65.5 10.3 65 9.2
2010-11-10 08:53:28 51°20.588 3°0.511 66.9 10.4 70 8.7
2010-11-10 08:53:32 51°20.592 3°0.529 67.5 10.7 70 9.7
2010-11-10 08:53:36 51°20.597 3°0.546 67.1 10.6 66 9.3
2010-11-10 08:53:42 51°20.603 3°0.573 67.6 10.7 74 9.5
2010-11-10 08:53:48 51°20.61 3°0.599 68.3 10.5 65 9.5
2010-11-10 08:53:52 51°20.614 3°0.616 65.4 10.5 68 9.3
2010-11-10 08:53:56 51°20.618 3°0.634 67 10.6 71 9.5
2010-11-10 08:54:02 51°20.626 3°0.659 66.9 10.4 67 9
2010-11-10 08:54:07 51°20.629 3°0.682 68.3 10.6 72 9.4
2010-11-10 08:54:12 51°20.636 3°0.703 66.9 10.6 64 9.2
2010-11-10 08:54:17 51°20.64 3°0.726 67.9 10.7 73 9.6
2010-11-10 08:54:22 51°20.647 3°0.747 66.5 10.4 63 9.2
2010-11-10 08:54:28 51°20.652 3°0.774 67 10.7 72 9.5
2010-11-10 08:54:32 51°20.657 3°0.791 67.7 10.7 69 10.4
2010-11-10 08:54:37 51°20.663 3°0.812 64.4 10.1 72 9.9
2010-11-10 08:54:43 51°20.667 3°0.838 68.9 10.3 72 9.7
2010-11-10 08:54:47 51°20.673 3°0.855 66.9 10.4 64 9.8
2010-11-10 08:54:52 51°20.678 3°0.876 64.5 10.3 69 10.1
2010-11-10 08:54:56 51°20.682 3°0.893 65.9 10.3 68 9.6
2010-11-10 08:55:02 51°20.688 3°0.919 67 10.6 68 9.3
2010-11-10 08:55:08 51°20.695 3°0.945 66.4 10.6 68 9.3
2010-11-10 08:55:12 51°20.698 3°0.963 66.6 10.3 72 10.1
2010-11-10 08:55:16 51°20.703 3°0.979 68.1 10.6 78 9.7
2010-11-10 08:55:22 51°20.709 3°1.006 70.7 10.4 61 9.8
2010-11-10 08:55:28 51°20.716 3°1.031 62.9 10.1 69 9.8
2010-11-10 08:55:32 51°20.721 3°1.047 63.6 10 65 8.8
2010-11-10 08:55:37 51°20.727 3°1.069 65.7 10.3 67 9.8
2010-11-10 08:55:42 51°20.734 3°1.088 62.7 10.1 60 9.1
2010-11-10 08:55:48 51°20.738 3°1.115 66.8 10.6 75 9.9
2010-11-10 08:55:52 51°20.745 3°1.13 65.9 10.7 59 10
2010-11-10 08:55:57 51°20.751 3°1.151 60.4 10.1 63 9.9
2010-11-10 08:56:02 51°20.758 3°1.17 61.9 10.1 66 9.5
2010-11-10 08:56:08 51°20.765 3°1.196 64.5 10.4 62 9.5
2010-11-10 08:56:12 51°20.77 3°1.212 61.5 10.3 67 10.3
2010-11-10 08:56:17 51°20.775 3°1.233 65.4 10.3 68 9.4
2010-11-10 08:56:23 51°20.782 3°1.259 64.7 10.5 62 9.3
2010-11-10 08:56:27 51°20.787 3°1.276 63.2 10.2 70 9.7
2010-11-10 08:56:32 51°20.792 3°1.297 66.2 10 67 9.6
2010-11-10 08:56:36 51°20.797 3°1.313 65.4 10.4 70 9.6
2010-11-10 08:56:42 51°20.803 3°1.34 67 10.5 69 9.9
2010-11-10 08:56:48 51°20.81 3°1.366 65.4 10.5 69 9.8
2010-11-10 08:56:52 51°20.812 3°1.384 68.1 10.3 71 8.9
2010-11-10 08:56:56 51°20.816 3°1.401 67.2 10.5 70 9.8
2010-11-10 08:57:02 51°20.823 3°1.426 65.9 10.4 69 9.8
2010-11-10 08:57:08 51°20.829 3°1.452 66.5 10.2 69 9
2010-11-10 08:57:12 51°20.832 3°1.47 68.3 10.5 72 9.5
2010-11-10 08:57:17 51°20.838 3°1.492 68.6 10.7 69 9.1
2010-11-10 08:57:23 51°20.843 3°1.519 68.9 10.5 70 9.1
2010-11-10 08:57:28 51°20.847 3°1.541 68.1 10.3 74 9
2010-11-10 08:57:32 51°20.851 3°1.558 68.9 10.5 71 9.8
2010-11-10 08:57:37 51°20.856 3°1.581 69 10.7 76 9.1
2010-11-10 08:57:42 51°20.861 3°1.603 69.1 10.5 65 8.9
2010-11-10 08:57:47 51°20.865 3°1.625 67.3 10.2 74 8.9
2010-11-10 08:57:52 51°20.869 3°1.647 71.1 10.6 74 9.4
2010-11-10 08:57:56 51°20.874 3°1.665 69 10.6 63 9
2010-11-10 08:58:02 51°20.881 3°1.691 64.9 10.5 67 9
2010-11-10 08:58:08 51°20.886 3°1.717 67.4 10.4 71 9.3
2010-11-10 08:58:12 51°20.892 3°1.734 67.3 10.8 67 9.4
2010-11-10 08:58:16 51°20.896 3°1.752 65.7 10.6 66 9.3
2010-11-10 08:58:22 51°20.902 3°1.778 65.6 10.3 74 9.2
2010-11-10 08:58:27 51°20.906 3°1.799 69.6 10.5 68 9.2
2010-11-10 08:58:32 51°20.913 3°1.821 65.6 10.8 68 9.4
2010-11-10 08:58:37 51°20.918 3°1.843 66.1 10.7 66 9.5
2010-11-10 08:58:42 51°20.923 3°1.865 66 10.6 75 9.1
2010-11-10 08:58:48 51°20.931 3°1.89 68.6 10.4 61 8.8
2010-11-10 08:58:52 51°20.935 3°1.908 64 10.4 68 8.5
2010-11-10 08:58:57 51°20.94 3°1.93 65.8 10.3 64 8.9
2010-11-10 08:59:02 51°20.946 3°1.951 65.4 10.6 71 9.7
2010-11-10 08:59:08 51°20.952 3°1.978 67.1 10.7 69 10.3
2010-11-10 08:59:12 51°20.956 3°1.995 65.4 10.6 68 9.9
2010-11-10 08:59:17 51°20.961 3°2.017 67.4 10.5 69 9.2
2010-11-10 08:59:23 51°20.968 3°2.043 68.1 10.5 67 9.3
2010-11-10 08:59:27 51°20.972 3°2.06 66.5 10.7 72 9.7
2010-11-10 08:59:32 51°20.977 3°2.083 68.3 10.8 66 9.8
2010-11-10 08:59:36 51°20.982 3°2.1 65.5 10.7 69 9.5
2010-11-10 08:59:42 51°20.988 3°2.127 67 10.8 67 9.5
2010-11-10 08:59:48 51°20.994 3°2.155 66.8 11.1 73 10.2
2010-11-10 08:59:52 51°20.999 3°2.172 67.6 11 67 9.9
2010-11-10 08:59:56 51°21.003 3°2.19 66.9 10.8 71 9.3
2010-11-10 09:00:02 51°21.009 3°2.216 67.5 10.7 68 9.8
2010-11-10 09:00:08 51°21.015 3°2.244 68.2 10.8 69 9.6
2010-11-10 09:00:12 51°21.019 3°2.263 67.6 11.2 73 9.5
2010-11-10 09:00:17 51°21.026 3°2.285 67.6 10.8 63 9.1
2010-11-10 09:00:22 51°21.029 3°2.307 67 10.7 78 9.3
2010-11-10 09:00:27 51°21.034 3°2.33 70.8 11 68 9.4
2010-11-10 09:00:32 51°21.04 3°2.352 67.7 10.9 67 9.8
2010-11-10 09:00:37 51°21.045 3°2.374 65.4 10.9 74 10.5
2010-11-10 09:00:42 51°21.051 3°2.396 67.9 10.8 69 9.7
2010-11-10 09:00:47 51°21.057 3°2.419 67 10.9 66 9.7
2010-11-10 09:00:52 51°21.063 3°2.441 64.8 10.9 66 9.1
2010-11-10 09:00:56 51°21.066 3°2.459 67.1 10.7 66 9.4
2010-11-10 09:01:02 51°21.074 3°2.485 65.5 10.8 69 9.5
2010-11-10 09:01:08 51°21.081 3°2.512 66.2 10.8 69 9.9
2010-11-10 09:01:12 51°21.085 3°2.53 67.1 10.9 68 9.7
2010-11-10 09:01:16 51°21.09 3°2.547 64.6 10.7 66 9.6
2010-11-10 09:01:22 51°21.096 3°2.574 67.7 10.9 72 10
2010-11-10 09:01:28 51°21.104 3°2.6 66.7 11 64 9.8
2010-11-10 09:01:32 51°21.109 3°2.617 64 10.7 63 9.7
2010-11-10 09:01:36 51°21.113 3°2.635 65.2 10.9 71 10
2010-11-10 09:01:42 51°21.121 3°2.661 65.4 11 64 10.7
2010-11-10 09:01:48 51°21.127 3°2.688 63.3 10.8 71 10.1
2010-11-10 09:01:52 51°21.132 3°2.705 66.4 10.7 66 9.6
2010-11-10 09:01:57 51°21.138 3°2.727 66 10.9 69 9.6
2010-11-10 09:02:02 51°21.143 3°2.75 67.4 10.9 65 10.1
2010-11-10 09:02:08 51°21.149 3°2.776 65.2 10.7 72 9.9
2010-11-10 09:02:12 51°21.153 3°2.794 68 10.9 69 9.8
2010-11-10 09:02:17 51°21.16 3°2.816 65.6 10.8 70 9.4
2010-11-10 09:02:22 51°21.165 3°2.839 68 10.8 65 9
2010-11-10 09:02:28 51°21.173 3°2.865 65.4 10.7 66 9.9
2010-11-10 09:02:32 51°21.177 3°2.883 66.1 10.9 70 10
2010-11-10 09:02:36 51°21.182 3°2.901 66.1 11.1 63 9.7
2010-11-10 09:02:42 51°21.189 3°2.928 65.6 10.7 69 9.4
2010-11-10 09:02:48 51°21.195 3°2.955 67.5 11 69 9.6
2010-11-10 09:02:52 51°21.201 3°2.972 66.1 11.1 62 9.3
2010-11-10 09:02:56 51°21.206 3°2.989 64.1 10.8 69 9.1
2010-11-10 09:03:02 51°21.212 3°3.016 66.9 11.1 65 10.3
2010-11-10 09:03:07 51°21.219 3°3.038 64.8 10.9 69 8.8
2010-11-10 09:03:12 51°21.224 3°3.061 67.1 10.9 69 9.8
2010-11-10 09:03:17 51°21.231 3°3.083 65.6 10.9 67 9.9
2010-11-10 09:03:22 51°21.236 3°3.106 66.2 10.9 68 10.3
2010-11-10 09:03:28 51°21.243 3°3.132 66.2 10.8 68 9.8
2010-11-10 09:03:32 51°21.246 3°3.15 68.1 11 70 10
2010-11-10 09:03:37 51°21.254 3°3.172 65.4 10.9 64 10
2010-11-10 09:03:43 51°21.26 3°3.199 66.5 10.8 70 9.3
2010-11-10 09:03:47 51°21.264 3°3.217 67.6 10.8 65 9.2
2010-11-10 09:03:52 51°21.27 3°3.239 66.3 10.7 68 9.1
2010-11-10 09:03:56 51°21.274 3°3.258 67.7 11 70 9.8
2010-11-10 09:04:02 51°21.281 3°3.285 67.2 10.9 63 9.2
2010-11-10 09:04:08 51°21.287 3°3.312 66.9 10.8 72 9.8
2010-11-10 09:04:12 51°21.292 3°3.329 67.7 10.8 67 10.2
2010-11-10 09:04:16 51°21.296 3°3.347 68.2 10.9 68 10.3
2010-11-10 09:04:22 51°21.304 3°3.374 65.4 10.6 67 10
2010-11-10 09:04:28 51°21.309 3°3.401 68.2 10.9 72 10
2010-11-10 09:04:32 51°21.315 3°3.419 68.5 11.1 61 9.7
2010-11-10 09:04:37 51°21.32 3°3.442 65.4 10.9 71 9.9
2010-11-10 09:04:42 51°21.326 3°3.464 67.2 10.9 65 9.8
2010-11-10 09:04:48 51°21.333 3°3.491 66.4 10.9 70 9.7
2010-11-10 09:04:52 51°21.337 3°3.509 67.5 10.9 69 10.5
2010-11-10 09:04:57 51°21.344 3°3.531 67.2 11.1 72 10.1
2010-11-10 09:05:02 51°21.348 3°3.555 68.4 11.1 68 10.3
2010-11-10 09:05:07 51°21.355 3°3.577 65.7 10.7 64 9.4
2010-11-10 09:05:12 51°21.359 3°3.599 67 10.6 73 9.8
2010-11-10 09:05:17 51°21.366 3°3.62 67.6 10.7 65 10.7
2010-11-10 09:05:23 51°21.373 3°3.647 65.1 10.8 67 10.1
2010-11-10 09:05:27 51°21.378 3°3.665 65.6 10.7 66 9.9
2010-11-10 09:05:32 51°21.383 3°3.687 66.2 10.9 69 10.1
2010-11-10 09:05:36 51°21.387 3°3.705 67.5 10.8 68 9.7
2010-11-10 09:05:42 51°21.393 3°3.732 68.3 10.8 69 9.4
2010-11-10 09:05:48 51°21.399 3°3.759 67.8 10.9 69 10
2010-11-10 09:05:52 51°21.403 3°3.778 68.3 11.1 72 10.5
2010-11-10 09:05:56 51°21.407 3°3.796 68.8 11 67 10.2
2010-11-10 09:06:02 51°21.413 3°3.824 68.1 11 76 10.5
2010-11-10 09:06:08 51°21.419 3°3.851 69.6 11.1 69 10.2
2010-11-10 09:06:12 51°21.424 3°3.869 67.5 11.1 66 10.2
2010-11-10 09:06:17 51°21.429 3°3.892 66.8 10.8 71 10
2010-11-10 09:06:23 51°21.435 3°3.919 69 10.9 70 9.7
2010-11-10 09:06:28 51°21.44 3°3.943 69.5 11.2 70 10.2
2010-11-10 09:06:32 51°21.444 3°3.961 68.1 11.2 71 10.5
2010-11-10 09:06:37 51°21.449 3°3.984 68.5 10.7 72 9.7
2010-11-10 09:06:42 51°21.453 3°4.008 70 11 75 10.3
2010-11-10 09:06:48 51°21.461 3°4.035 69.4 11 68 9.8
2010-11-10 09:06:52 51°21.464 3°4.053 68.4 10.9 71 10.2
2010-11-10 09:06:57 51°21.469 3°4.077 69 11.1 75 10.8
2010-11-10 09:07:02 51°21.474 3°4.099 68.4 11 67 10
2010-11-10 09:07:07 51°21.479 3°4.122 68.5 11 74 10
2010-11-10 09:07:12 51°21.483 3°4.146 70.5 11.2 72 10.5
2010-11-10 09:07:16 51°21.488 3°4.163 66.8 10.7 69 9.9
2010-11-10 09:07:22 51°21.493 3°4.191 69 11 72 10.3
2010-11-10 09:07:28 51°21.501 3°4.217 68.1 10.9 64 9.8
2010-11-10 09:07:32 51°21.504 3°4.237 67.2 11.1 75 10.4
2010-11-10 09:07:36 51°21.508 3°4.255 69.2 11.1 69 10.6
2010-11-10 09:07:42 51°21.514 3°4.283 67.8 10.8 72 10.4
2010-11-10 09:07:48 51°21.519 3°4.311 69.4 11.1 76 10.3
2010-11-10 09:07:52 51°21.524 3°4.33 71.1 11.3 69 10.5
2010-11-10 09:07:57 51°21.53 3°4.352 66.3 10.8 71 9.8
2010-11-10 09:08:02 51°21.533 3°4.375 69 10.9 71 10.2
2010-11-10 09:08:08 51°21.54 3°4.403 68.3 10.9 73 10.1
2010-11-10 09:08:12 51°21.543 3°4.422 70.5 11.1 70 10.2
2010-11-10 09:08:17 51°21.55 3°4.444 67.4 10.9 70 9.7
2010-11-10 09:08:23 51°21.555 3°4.472 68.4 11.2 72 10.4
2010-11-10 09:08:27 51°21.559 3°4.491 68.3 11 70 10.4
2010-11-10 09:08:32 51°21.563 3°4.514 68.7 10.9 75 10.3
2010-11-10 09:08:36 51°21.567 3°4.533 69.5 11 68 10.2
2010-11-10 09:08:42 51°21.574 3°4.56 67.3 11 71 10.1
2010-11-10 09:08:48 51°21.579 3°4.588 68.7 11.1 71 10.1
2010-11-10 09:08:52 51°21.583 3°4.606 68 10.9 70 10.3
2010-11-10 09:08:56 51°21.587 3°4.625 69.6 11.2 80 10.7
2010-11-10 09:09:02 51°21.593 3°4.653 71 11.2 67 10.5
2010-11-10 09:09:08 51°21.6 3°4.68 65.9 10.9 68 10.4
2010-11-10 09:09:12 51°21.603 3°4.699 67.2 11.2 76 10.9
2010-11-10 09:09:17 51°21.609 3°4.721 67.5 11 65 10.3
2010-11-10 09:09:22 51°21.613 3°4.744 66.9 10.8 76 10.4
2010-11-10 09:09:27 51°21.618 3°4.767 69.2 11 72 10.1
2010-11-10 09:09:32 51°21.623 3°4.791 69.8 11.2 69 10.2
2010-11-10 09:09:37 51°21.629 3°4.814 67.7 11 70 10.5
2010-11-10 09:09:42 51°21.633 3°4.837 69 11.1 73 10.5
2010-11-10 09:09:48 51°21.64 3°4.864 70.7 11 64 10.3
2010-11-10 09:09:52 51°21.645 3°4.882 65.5 10.9 68 10.5
2010-11-10 09:09:57 51°21.65 3°4.905 67.3 11.4 69 10.7
2010-11-10 09:10:03 51°21.657 3°4.934 66.5 11.3 70 10.9
2010-11-10 09:10:07 51°21.661 3°4.952 67.5 10.9 70 10.4
2010-11-10 09:10:12 51°21.665 3°4.975 70 11 75 10.7
2010-11-10 09:10:16 51°21.669 3°4.994 68.4 11.1 64 10.2
2010-11-10 09:10:22 51°21.675 3°5.022 66.9 10.9 74 10.3
2010-11-10 09:10:28 51°21.682 3°5.047 67.9 10.7 69 9.9
2010-11-10 09:10:32 51°21.685 3°5.067 71.2 10.9 76 10.2
2010-11-10 09:10:36 51°21.69 3°5.085 68.3 11.1 65 11.1
2010-11-10 09:10:42 51°21.696 3°5.112 65 10.6 71 10.5
2010-11-10 09:10:48 51°21.701 3°5.14 69.3 11.2 75 11
2010-11-10 09:10:52 51°21.707 3°5.157 68.2 11.1 65 10.6
2010-11-10 09:10:57 51°21.712 3°5.18 65.9 10.9 72 10.9
2010-11-10 09:11:03 51°21.718 3°5.207 67.6 10.6 70 10.1
2010-11-10 09:11:08 51°21.722 3°5.23 69.7 11 74 9.9
2010-11-10 09:11:12 51°21.726 3°5.249 70.1 11.2 71 10.3
2010-11-10 09:11:17 51°21.729 3°5.273 68.2 10.8 79 10.3
2010-11-10 09:11:22 51°21.732 3°5.296 74.1 10.8 74 10.3
2010-11-10 09:11:28 51°21.738 3°5.323 71.8 10.7 72 10.7
2010-11-10 09:11:32 51°21.742 3°5.34 68.4 10.7 75 10.4
2010-11-10 09:11:36 51°21.744 3°5.36 71.7 10.8 71 10.2